createdAt,value
2019-04-13T00:01:01.700Z,5.60
2019-04-13T00:03:31.728Z,5.60
2019-04-13T00:06:02.803Z,5.50
2019-04-13T00:08:33.712Z,5.40
2019-04-13T00:11:04.823Z,5.50
2019-04-13T00:13:34.214Z,5.50
2019-04-13T00:16:03.780Z,5.40
2019-04-13T00:18:33.118Z,5.30
2019-04-13T00:21:02.468Z,5.30
2019-04-13T00:23:31.865Z,5.40
2019-04-13T00:26:01.284Z,5.30
2019-04-13T00:28:30.693Z,5.20
2019-04-13T00:31:00.111Z,5.10
2019-04-13T00:33:29.503Z,5.10
2019-04-13T00:35:58.878Z,5.10
2019-04-13T00:38:28.277Z,5.10
2019-04-13T00:40:57.689Z,5.20
2019-04-13T00:43:27.061Z,5.20
2019-04-13T00:45:56.435Z,5.20
2019-04-13T00:48:25.840Z,5.30
2019-04-13T00:50:55.195Z,5.30
2019-04-13T00:53:24.592Z,5.20
2019-04-13T00:55:53.993Z,5.10
2019-04-13T00:58:23.453Z,5.10
2019-04-13T01:00:52.892Z,5.00
2019-04-13T01:03:22.301Z,4.90
2019-04-13T01:05:51.659Z,4.90
2019-04-13T01:08:21.080Z,4.90
2019-04-13T01:10:50.450Z,4.90
2019-04-13T01:13:19.988Z,4.90
2019-04-13T01:15:49.374Z,4.90
2019-04-13T01:18:18.758Z,4.90
2019-04-13T01:20:48.141Z,5.00
2019-04-13T01:23:17.532Z,4.90
2019-04-13T01:25:46.906Z,5.00
2019-04-13T01:28:16.321Z,4.90
2019-04-13T01:30:45.728Z,4.80
2019-04-13T01:33:15.115Z,4.80
2019-04-13T01:35:44.473Z,4.60
2019-04-13T01:38:13.939Z,4.70
2019-04-13T01:40:43.987Z,4.70
2019-04-13T01:43:13.396Z,4.70
2019-04-13T01:45:42.746Z,4.70
2019-04-13T01:48:12.149Z,4.70
2019-04-13T01:50:41.446Z,4.70
2019-04-13T01:53:10.868Z,4.80
2019-04-13T01:55:40.234Z,4.70
2019-04-13T01:58:11.177Z,4.70
2019-04-13T02:00:58.375Z,4.70
2019-04-13T02:03:29.038Z,4.70
2019-04-13T02:06:00.120Z,4.60
2019-04-13T02:08:40.205Z,4.50
2019-04-13T02:11:13.923Z,4.50
2019-04-13T02:13:43.311Z,4.40
2019-04-13T02:16:12.665Z,4.40
2019-04-13T02:18:42.067Z,4.40
2019-04-13T02:21:11.491Z,4.50
2019-04-13T02:23:40.892Z,4.50
2019-04-13T02:26:10.253Z,4.50
2019-04-13T02:28:39.639Z,4.60
2019-04-13T02:31:09.087Z,4.50
2019-04-13T02:33:38.462Z,4.50
2019-04-13T02:36:07.831Z,4.40
2019-04-13T02:38:37.206Z,4.40
2019-04-13T02:41:06.651Z,4.40
2019-04-13T02:43:36.020Z,4.40
2019-04-13T02:46:05.413Z,4.40
2019-04-13T02:48:34.804Z,4.50
2019-04-13T02:51:04.374Z,4.50
2019-04-13T02:53:33.747Z,4.50
2019-04-13T02:56:04.583Z,4.40
2019-04-13T02:58:34.021Z,4.30
2019-04-13T03:01:03.559Z,4.40
2019-04-13T03:03:32.995Z,4.30
2019-04-13T03:06:02.532Z,4.30
2019-04-13T03:08:31.954Z,4.30
2019-04-13T03:11:01.487Z,4.30
2019-04-13T03:13:31.008Z,4.20
2019-04-13T03:16:14.254Z,4.20
2019-04-13T03:19:00.143Z,4.20
2019-04-13T03:21:29.502Z,4.20
2019-04-13T03:23:58.857Z,4.30
2019-04-13T03:26:28.195Z,4.20
2019-04-13T03:28:57.564Z,4.30
2019-04-13T03:31:26.996Z,4.30
2019-04-13T03:33:56.384Z,4.20
2019-04-13T03:36:25.768Z,4.30
2019-04-13T03:38:55.173Z,4.20
2019-04-13T03:41:24.627Z,4.20
2019-04-13T03:43:54.013Z,4.20
2019-04-13T03:46:23.485Z,4.20
2019-04-13T03:48:52.850Z,4.20
2019-04-13T03:51:22.237Z,4.30
2019-04-13T03:53:51.617Z,4.30
2019-04-13T03:56:21.027Z,4.30
2019-04-13T03:58:50.463Z,4.20
2019-04-13T04:01:19.848Z,4.10
2019-04-13T04:03:49.225Z,4.10
2019-04-13T04:06:18.616Z,4.10
2019-04-13T04:08:48.005Z,4.10
2019-04-13T04:11:17.399Z,4.00
2019-04-13T04:13:46.691Z,4.00
2019-04-13T04:16:16.110Z,4.00
2019-04-13T04:18:45.554Z,4.10
2019-04-13T04:21:14.878Z,4.10
2019-04-13T04:23:44.298Z,4.10
2019-04-13T04:26:15.326Z,4.00
2019-04-13T04:28:44.807Z,4.00
2019-04-13T04:31:14.192Z,4.10
2019-04-13T04:33:43.563Z,4.10
2019-04-13T04:36:23.067Z,4.00
2019-04-13T04:38:44.035Z,4.00
2019-04-13T04:41:13.492Z,4.00
2019-04-13T04:43:42.926Z,4.00
2019-04-13T04:46:12.343Z,4.00
2019-04-13T04:48:41.699Z,3.90
2019-04-13T04:51:11.645Z,4.00
2019-04-13T04:53:41.147Z,3.90
2019-04-13T04:56:10.656Z,3.90
2019-04-13T04:58:40.103Z,3.90
2019-04-13T05:01:09.474Z,3.90
2019-04-13T05:03:38.863Z,4.00
2019-04-13T05:06:08.258Z,4.00
2019-04-13T05:08:37.621Z,4.10
2019-04-13T05:11:06.996Z,4.10
2019-04-13T05:13:36.379Z,4.10
2019-04-13T05:16:05.761Z,4.00
2019-04-13T05:18:35.129Z,4.00
2019-04-13T05:21:04.514Z,4.00
2019-04-13T05:23:33.896Z,4.00
2019-04-13T05:26:03.357Z,4.00
2019-04-13T05:28:32.707Z,4.00
2019-04-13T05:31:02.103Z,4.00
2019-04-13T05:33:31.404Z,4.10
2019-04-13T05:36:00.825Z,4.00
2019-04-13T05:38:30.220Z,4.10
2019-04-13T05:40:59.667Z,4.10
2019-04-13T05:43:29.060Z,4.10
2019-04-13T05:45:58.444Z,4.10
2019-04-13T05:48:27.826Z,4.10
2019-04-13T05:50:57.186Z,4.20
2019-04-13T05:53:26.659Z,4.20
2019-04-13T05:55:56.037Z,4.30
2019-04-13T05:58:25.405Z,4.30
2019-04-13T06:00:54.798Z,4.30
2019-04-13T06:03:24.192Z,4.40
2019-04-13T06:05:53.633Z,4.40
2019-04-13T06:08:23.008Z,4.40
2019-04-13T06:10:52.460Z,4.50
2019-04-13T06:13:24.102Z,4.60
2019-04-13T06:15:52.992Z,4.60
2019-04-13T06:18:22.347Z,4.60
2019-04-13T06:20:51.710Z,4.60
2019-04-13T06:23:21.104Z,4.60
2019-04-13T06:25:50.469Z,4.70
2019-04-13T06:28:19.923Z,4.60
2019-04-13T06:30:53.535Z,4.60
2019-04-13T06:33:30.083Z,4.70
2019-04-13T06:35:59.610Z,4.80
2019-04-13T06:38:28.996Z,4.80
2019-04-13T06:40:58.493Z,4.80
2019-04-13T06:43:28.202Z,4.70
2019-04-13T06:45:57.600Z,4.60
2019-04-13T06:48:27.003Z,4.70
2019-04-13T06:50:56.380Z,4.60
2019-04-13T06:53:25.786Z,4.60
2019-04-13T06:55:55.249Z,4.70
2019-04-13T06:58:24.547Z,4.80
2019-04-13T07:00:53.940Z,4.80
2019-04-13T07:03:23.331Z,4.90
2019-04-13T07:05:52.764Z,5.00
2019-04-13T07:08:39.641Z,4.90
2019-04-13T07:11:13.433Z,4.90
2019-04-13T07:13:53.342Z,4.80
2019-04-13T07:16:26.864Z,4.60
2019-04-13T07:18:56.232Z,4.70
2019-04-13T07:21:25.678Z,4.70
2019-04-13T07:23:57.926Z,4.90
2019-04-13T07:26:26.290Z,4.90
2019-04-13T07:28:55.658Z,5.00
2019-04-13T07:31:25.051Z,5.00
2019-04-13T07:33:54.643Z,5.20
2019-04-13T07:36:24.299Z,5.30
2019-04-13T07:38:53.782Z,5.50
2019-04-13T07:41:23.432Z,5.70
2019-04-13T07:43:52.853Z,6.00
2019-04-13T07:46:26.801Z,6.10
2019-04-13T07:49:13.755Z,6.30
2019-04-13T07:51:51.301Z,6.40
2019-04-13T07:54:19.304Z,6.40
2019-04-13T07:56:50.307Z,6.40
2019-04-13T07:59:20.430Z,6.40
2019-04-13T08:01:56.690Z,6.40
2019-04-13T08:04:20.995Z,6.60
2019-04-13T08:06:50.361Z,6.60
2019-04-13T08:09:19.724Z,6.70
2019-04-13T08:11:49.211Z,7.00
2019-04-13T08:14:29.118Z,6.90
2019-04-13T08:16:59.441Z,7.00
2019-04-13T08:19:30.450Z,7.40
2019-04-13T08:22:01.877Z,7.70
2019-04-13T08:24:30.984Z,7.90
2019-04-13T08:27:00.373Z,8.30
2019-04-13T08:29:29.736Z,8.40
2019-04-13T08:32:02.003Z,8.50
2019-04-13T08:34:31.040Z,8.70
2019-04-13T08:37:03.402Z,8.40
2019-04-13T08:39:32.291Z,7.70
2019-04-13T08:42:01.761Z,7.80
2019-04-13T08:44:31.227Z,8.20
2019-04-13T08:47:00.882Z,8.60
2019-04-13T08:49:30.247Z,9.00
2019-04-13T08:51:59.684Z,9.10
2019-04-13T08:54:35.172Z,9.30
2019-04-13T08:57:04.952Z,9.40
2019-04-13T08:59:34.648Z,9.40
2019-04-13T09:02:04.329Z,9.50
2019-04-13T09:04:33.766Z,9.40
2019-04-13T09:07:03.172Z,9.30
2019-04-13T09:09:35.606Z,9.50
2019-04-13T09:12:06.049Z,9.50
2019-04-13T09:14:35.107Z,9.80
2019-04-13T09:17:06.442Z,10.20
2019-04-13T09:19:40.004Z,10.40
2019-04-13T09:22:12.747Z,10.80
2019-04-13T09:24:42.464Z,10.90
2019-04-13T09:27:11.841Z,10.70
2019-04-13T09:29:41.332Z,10.10
2019-04-13T09:32:10.715Z,9.50
2019-04-13T09:34:40.194Z,9.00
2019-04-13T09:37:09.546Z,8.90
2019-04-13T09:39:38.943Z,8.90
2019-04-13T09:42:10.657Z,8.90
2019-04-13T09:44:39.464Z,8.90
2019-04-13T09:47:10.580Z,8.60
2019-04-13T09:49:40.134Z,8.40
2019-04-13T09:52:09.532Z,8.30
2019-04-13T09:54:40.703Z,8.30
2019-04-13T09:57:10.152Z,8.30
2019-04-13T09:59:39.602Z,8.20
2019-04-13T10:02:09.252Z,8.30
2019-04-13T10:04:38.685Z,8.60
2019-04-13T10:07:09.060Z,8.80
2019-04-13T10:09:39.618Z,8.90
2019-04-13T10:12:11.392Z,9.10
2019-04-13T10:14:42.777Z,9.10
2019-04-13T10:17:23.544Z,9.20
2019-04-13T10:19:53.583Z,9.30
2019-04-13T10:22:24.570Z,9.50
2019-04-13T10:24:54.150Z,9.50
2019-04-13T10:27:23.789Z,9.60
2019-04-13T10:29:53.895Z,9.60
2019-04-13T10:32:23.259Z,9.70
2019-04-13T10:34:52.643Z,9.90
2019-04-13T10:37:22.058Z,10.10
2019-04-13T10:39:51.355Z,10.40
2019-04-13T10:42:20.793Z,10.90
2019-04-13T10:44:51.908Z,11.40
2019-04-13T10:47:34.398Z,11.60
2019-04-13T10:50:20.303Z,11.90
2019-04-13T10:52:54.328Z,12.40
2019-04-13T10:55:20.852Z,13.00
2019-04-13T10:57:50.359Z,13.40
2019-04-13T11:00:19.742Z,14.00
2019-04-13T11:02:49.213Z,14.10
2019-04-13T11:05:18.581Z,14.40
2019-04-13T11:07:47.970Z,14.80
2019-04-13T11:10:17.357Z,15.80
2019-04-13T11:12:46.725Z,16.50
2019-04-13T11:15:17.084Z,18.00
2019-04-13T11:17:46.434Z,19.30
2019-04-13T11:20:15.835Z,21.00
2019-04-13T11:22:45.371Z,21.90
2019-04-13T11:25:21.492Z,22.40
2019-04-13T11:27:48.915Z,22.20
2019-04-13T11:30:26.016Z,21.40
2019-04-13T11:32:55.388Z,19.70
2019-04-13T11:35:26.044Z,18.30
2019-04-13T11:37:57.741Z,16.90
2019-04-13T11:40:27.217Z,15.90
2019-04-13T11:43:01.195Z,15.20
2019-04-13T11:45:35.031Z,14.50
2019-04-13T11:48:24.393Z,13.70
2019-04-13T11:51:13.377Z,12.60
2019-04-13T11:53:42.879Z,11.90
2019-04-13T11:56:12.277Z,11.60
2019-04-13T11:58:41.689Z,11.50
2019-04-13T12:01:15.771Z,11.30
2019-04-13T12:03:55.831Z,11.30
2019-04-13T12:06:42.942Z,11.20
2019-04-13T12:09:14.024Z,11.40
2019-04-13T12:11:47.681Z,11.70
2019-04-13T12:14:35.046Z,12.50
2019-04-13T12:17:09.123Z,13.50
2019-04-13T12:19:51.949Z,14.20
2019-04-13T12:22:29.046Z,14.50
2019-04-13T12:24:58.417Z,14.60
2019-04-13T12:27:27.893Z,14.30
2019-04-13T12:29:57.288Z,14.20
2019-04-13T12:32:28.356Z,13.90
2019-04-13T12:34:58.188Z,14.10
2019-04-13T12:37:27.711Z,13.80
2019-04-13T12:40:03.053Z,13.70
2019-04-13T12:42:29.853Z,14.00
2019-04-13T12:44:59.484Z,14.10
2019-04-13T12:47:29.728Z,14.10
2019-04-13T12:49:59.438Z,14.50
2019-04-13T12:52:30.345Z,14.60
2019-04-13T12:55:00.032Z,15.10
2019-04-13T12:57:30.484Z,16.20
2019-04-13T13:00:01.408Z,16.70
2019-04-13T13:02:41.425Z,16.10
2019-04-13T13:05:24.756Z,15.90
2019-04-13T13:07:54.209Z,15.70
2019-04-13T13:10:25.219Z,15.60
2019-04-13T13:12:54.869Z,15.10
2019-04-13T13:15:24.270Z,14.50
2019-04-13T13:17:54.535Z,14.30
2019-04-13T13:20:26.767Z,14.00
2019-04-13T13:22:56.289Z,13.30
2019-04-13T13:25:25.694Z,12.60
2019-04-13T13:27:55.135Z,12.40
2019-04-13T13:30:24.908Z,12.10
2019-04-13T13:32:56.774Z,11.90
2019-04-13T13:35:25.426Z,11.80
2019-04-13T13:37:54.819Z,11.60
2019-04-13T13:40:31.009Z,11.60
2019-04-13T13:42:55.293Z,11.30
2019-04-13T13:45:25.984Z,11.10
2019-04-13T13:47:55.609Z,10.70
2019-04-13T13:50:25.166Z,10.10
2019-04-13T13:52:56.612Z,9.80
2019-04-13T13:55:28.028Z,9.60
2019-04-13T13:57:59.117Z,9.70
2019-04-13T14:00:44.943Z,9.80
2019-04-13T14:03:14.340Z,10.10
2019-04-13T14:05:45.490Z,9.90
2019-04-13T14:08:14.863Z,10.00
2019-04-13T14:10:48.317Z,10.50
2019-04-13T14:13:17.214Z,10.90
2019-04-13T14:15:46.840Z,11.30
2019-04-13T14:18:16.212Z,11.40
2019-04-13T14:20:45.601Z,11.40
2019-04-13T14:23:14.980Z,11.40
2019-04-13T14:25:44.369Z,11.70
2019-04-13T14:28:13.754Z,12.00
2019-04-13T14:30:43.065Z,12.30
2019-04-13T14:33:12.531Z,12.90
2019-04-13T14:35:43.871Z,13.20
2019-04-13T14:38:14.070Z,13.80
2019-04-13T14:40:54.959Z,14.90
2019-04-13T14:43:16.410Z,15.70
2019-04-13T14:45:45.938Z,16.00
2019-04-13T14:48:15.329Z,16.70
2019-04-13T14:50:44.703Z,15.80
2019-04-13T14:53:15.020Z,13.80
2019-04-13T14:55:44.965Z,13.80
2019-04-13T14:58:14.371Z,13.20
2019-04-13T15:00:43.849Z,12.30
2019-04-13T15:03:13.223Z,10.90
2019-04-13T15:05:42.857Z,12.10
2019-04-13T15:08:12.389Z,12.30
2019-04-13T15:10:41.768Z,13.50
2019-04-13T15:13:12.823Z,14.60
2019-04-13T15:15:45.921Z,14.20
2019-04-13T15:18:23.942Z,14.40
2019-04-13T15:20:57.964Z,14.00
2019-04-13T15:23:25.662Z,14.20
2019-04-13T15:25:55.187Z,14.80
2019-04-13T15:28:29.057Z,16.00
2019-04-13T15:31:00.143Z,17.00
2019-04-13T15:33:28.759Z,17.30
2019-04-13T15:36:01.398Z,15.50
2019-04-13T15:38:29.998Z,14.50
2019-04-13T15:41:03.223Z,13.20
2019-04-13T15:43:34.661Z,13.00
2019-04-13T15:46:03.005Z,12.70
2019-04-13T15:48:32.528Z,12.40
2019-04-13T15:51:05.239Z,11.70
2019-04-13T15:53:34.955Z,11.20
2019-04-13T15:56:04.703Z,10.60
2019-04-13T15:58:35.146Z,10.70
2019-04-13T16:01:04.810Z,10.80
2019-04-13T16:03:34.404Z,10.50
2019-04-13T16:06:04.734Z,10.70
2019-04-13T16:08:35.945Z,10.40
2019-04-13T16:11:08.518Z,10.40
2019-04-13T16:13:39.077Z,10.30
2019-04-13T16:16:11.293Z,10.40
2019-04-13T16:18:41.296Z,10.30
2019-04-13T16:21:13.524Z,10.40
2019-04-13T16:23:44.688Z,10.70
2019-04-13T16:26:14.047Z,10.60
2019-04-13T16:28:48.341Z,10.20
2019-04-13T16:31:22.609Z,10.10
2019-04-13T16:34:09.657Z,9.40
2019-04-13T16:36:41.879Z,8.90
2019-04-13T16:39:16.599Z,9.00
2019-04-13T16:41:55.135Z,9.10
2019-04-13T16:44:27.056Z,8.90
2019-04-13T16:46:59.306Z,8.90
2019-04-13T16:49:48.722Z,8.90
2019-04-13T16:52:20.171Z,8.70
2019-04-13T16:55:05.861Z,8.60
2019-04-13T16:57:40.312Z,8.40
2019-04-13T17:00:12.871Z,8.40
2019-04-13T17:02:44.671Z,8.20
2019-04-13T17:05:15.943Z,8.00
2019-04-13T17:07:45.480Z,8.00
2019-04-13T17:10:17.645Z,7.70
2019-04-13T17:12:48.196Z,7.50
2019-04-13T17:15:19.134Z,7.50
2019-04-13T17:17:49.307Z,7.30
2019-04-13T17:20:36.989Z,7.20
2019-04-13T17:23:27.199Z,7.20
2019-04-13T17:25:58.357Z,7.10
2019-04-13T17:28:29.300Z,7.20
2019-04-13T17:31:09.853Z,7.30
2019-04-13T17:33:41.906Z,7.40
2019-04-13T17:36:12.569Z,7.40
2019-04-13T17:38:42.091Z,7.30
2019-04-13T17:41:19.872Z,7.30
2019-04-13T17:43:57.995Z,7.30
2019-04-13T17:46:35.899Z,7.00
2019-04-13T17:49:13.846Z,6.80
2019-04-13T17:52:01.223Z,6.80
2019-04-13T17:54:35.252Z,6.80
2019-04-13T17:57:05.720Z,6.60
2019-04-13T17:59:52.854Z,6.50
2019-04-13T18:02:27.652Z,6.50
2019-04-13T18:05:04.532Z,6.50
2019-04-13T18:07:41.316Z,6.50
2019-04-13T18:10:18.899Z,6.30
2019-04-13T18:12:53.743Z,6.10
2019-04-13T18:15:34.773Z,6.00
2019-04-13T18:18:06.083Z,6.10
2019-04-13T18:20:36.475Z,6.10
2019-04-13T18:23:06.778Z,6.10
2019-04-13T18:25:44.195Z,6.10
2019-04-13T18:28:09.035Z,6.00
2019-04-13T18:30:41.505Z,5.90
2019-04-13T18:33:09.570Z,5.80
2019-04-13T18:35:41.591Z,5.80
2019-04-13T18:38:10.340Z,5.70
2019-04-13T18:40:40.722Z,5.70
2019-04-13T18:43:15.813Z,5.70
2019-04-13T18:45:41.305Z,5.60
2019-04-13T18:48:12.014Z,5.50
2019-04-13T18:50:41.591Z,5.50
2019-04-13T18:53:12.796Z,5.50
2019-04-13T18:55:43.111Z,5.40
2019-04-13T18:58:12.746Z,5.30
2019-04-13T19:00:42.398Z,5.30
2019-04-13T19:03:12.933Z,5.30
2019-04-13T19:05:42.497Z,5.30
2019-04-13T19:08:12.005Z,5.20
2019-04-13T19:10:41.509Z,5.20
2019-04-13T19:13:11.041Z,5.20
2019-04-13T19:15:40.441Z,5.30
2019-04-13T19:18:09.844Z,5.30
2019-04-13T19:20:41.963Z,5.20
2019-04-13T19:23:11.467Z,5.30
2019-04-13T19:25:41.582Z,5.20
2019-04-13T19:28:11.208Z,5.20
2019-04-13T19:30:40.595Z,5.00
2019-04-13T19:33:09.941Z,5.00
2019-04-13T19:35:39.340Z,4.90
2019-04-13T19:38:08.741Z,4.80
2019-04-13T19:40:38.127Z,4.90
2019-04-13T19:43:16.341Z,4.80
2019-04-13T19:45:38.642Z,4.80
2019-04-13T19:48:08.002Z,4.80
2019-04-13T19:50:37.471Z,4.70
2019-04-13T19:53:08.494Z,4.70
2019-04-13T19:55:37.893Z,4.70
2019-04-13T19:58:07.329Z,4.60
2019-04-13T20:00:38.410Z,4.60
2019-04-13T20:03:07.885Z,4.60
2019-04-13T20:05:37.259Z,4.60
2019-04-13T20:08:06.671Z,4.50
2019-04-13T20:10:36.071Z,4.60
2019-04-13T20:13:06.482Z,4.50
2019-04-13T20:15:36.303Z,4.50
2019-04-13T20:18:06.118Z,4.60
2019-04-13T20:20:35.526Z,4.70
2019-04-13T20:23:05.058Z,4.70
2019-04-13T20:25:35.434Z,4.70
2019-04-13T20:28:05.001Z,4.70
2019-04-13T20:30:34.901Z,4.80
2019-04-13T20:33:04.649Z,4.70
2019-04-13T20:35:34.643Z,4.60
2019-04-13T20:38:04.346Z,4.60
2019-04-13T20:40:36.008Z,4.60
2019-04-13T20:43:05.546Z,4.80
2019-04-13T20:45:35.020Z,4.80
2019-04-13T20:48:05.860Z,5.00
2019-04-13T20:50:35.414Z,5.00
2019-04-13T20:53:04.772Z,5.00
2019-04-13T20:55:35.041Z,5.00
2019-04-13T20:58:05.233Z,5.10
2019-04-13T21:00:35.629Z,5.00
2019-04-13T21:03:05.843Z,5.00
2019-04-13T21:05:36.088Z,4.90
2019-04-13T21:08:06.302Z,4.80
2019-04-13T21:10:36.339Z,4.80
2019-04-13T21:13:05.783Z,4.80
2019-04-13T21:15:35.693Z,4.80
2019-04-13T21:18:05.764Z,4.80
2019-04-13T21:20:36.049Z,4.90
2019-04-13T21:23:06.020Z,4.90
2019-04-13T21:25:35.927Z,5.00
2019-04-13T21:28:06.060Z,5.10
2019-04-13T21:30:36.027Z,5.00
2019-04-13T21:33:06.249Z,5.00
2019-04-13T21:35:35.918Z,5.00
2019-04-13T21:38:06.290Z,5.00
2019-04-13T21:40:36.171Z,5.00
2019-04-13T21:43:06.313Z,4.90
2019-04-13T21:45:36.453Z,4.80
2019-04-13T21:48:06.684Z,4.80
2019-04-13T21:50:52.807Z,4.80
2019-04-13T21:53:35.993Z,4.80
2019-04-13T21:56:05.830Z,4.80
2019-04-13T21:58:35.869Z,4.80
2019-04-13T22:01:21.900Z,4.80
2019-04-13T22:03:51.374Z,4.90
2019-04-13T22:06:21.307Z,4.90
2019-04-13T22:08:51.339Z,4.90
2019-04-13T22:11:21.209Z,4.80
2019-04-13T22:13:51.101Z,4.80
2019-04-13T22:16:21.254Z,4.80
2019-04-13T22:18:51.764Z,4.80
2019-04-13T22:21:22.013Z,4.90
2019-04-13T22:23:52.068Z,4.90
2019-04-13T22:26:21.906Z,4.80
2019-04-13T22:29:09.323Z,4.80
2019-04-13T22:31:41.591Z,4.80
2019-04-13T22:34:12.711Z,4.60
2019-04-13T22:36:46.391Z,4.60
2019-04-13T22:39:16.067Z,4.50
2019-04-13T22:41:45.928Z,4.40
2019-04-13T22:44:16.102Z,4.40
2019-04-13T22:46:46.383Z,4.40
2019-04-13T22:49:21.053Z,4.30
2019-04-13T22:51:57.894Z,4.20
2019-04-13T22:54:38.782Z,4.20
2019-04-13T22:57:25.911Z,4.20
2019-04-13T22:59:55.546Z,4.20
2019-04-13T23:02:27.573Z,4.20
2019-04-13T23:04:58.066Z,4.20
2019-04-13T23:07:28.298Z,4.20
2019-04-13T23:09:58.544Z,4.30
2019-04-13T23:12:28.906Z,4.30
2019-04-13T23:15:07.458Z,4.20
2019-04-13T23:17:29.395Z,4.30
2019-04-13T23:19:58.941Z,4.30
2019-04-13T23:22:28.332Z,4.40
2019-04-13T23:24:58.240Z,4.30
2019-04-13T23:27:28.801Z,4.30
2019-04-13T23:29:58.629Z,4.40
2019-04-13T23:32:29.181Z,4.30
2019-04-13T23:35:01.160Z,4.30
2019-04-13T23:37:30.114Z,4.30
2019-04-13T23:40:00.695Z,4.30
2019-04-13T23:42:30.783Z,4.20
2019-04-13T23:45:10.723Z,4.20
2019-04-13T23:47:31.892Z,4.20
2019-04-13T23:50:02.115Z,4.20
2019-04-13T23:52:32.628Z,4.20
2019-04-13T23:55:03.176Z,4.30
2019-04-13T23:57:44.284Z,4.20
